sensor_id;sensor_type;location;lat;lon;timestamp;P1;P2;P0
68198;PMS7003;55021;51.554;17.044;2023-03-15T00:10:53;14.00;11.75;3.25
68198;PMS7003;55021;51.554;17.044;2023-03-15T00:25:55;14.25;13.00;5.00
68198;PMS7003;55021;51.554;17.044;2023-03-15T00:40:59;10.00;10.00;4.00
68198;PMS7003;55021;51.554;17.044;2023-03-15T00:56:06;14.50;11.75;2.00
68198;PMS7003;55021;51.554;17.044;2023-03-15T01:11:11;8.25;7.75;1.25
68198;PMS7003;55021;51.554;17.044;2023-03-15T01:26:16;11.00;8.50;2.00
68198;PMS7003;55021;51.554;17.044;2023-03-15T01:57:01;7.75;5.25;1.25
68198;PMS7003;55021;51.554;17.044;2023-03-15T02:27:46;7.00;6.00;1.75
68198;PMS7003;55021;51.554;17.044;2023-03-15T02:42:50;6.50;6.50;0.00
68198;PMS7003;55021;51.554;17.044;2023-03-15T02:57:55;7.50;5.25;0.50
68198;PMS7003;55021;51.554;17.044;2023-03-15T03:12:58;6.50;6.50;0.00
68198;PMS7003;55021;51.554;17.044;2023-03-15T03:28:01;7.25;7.00;1.00
68198;PMS7003;55021;51.554;17.044;2023-03-15T03:43:04;7.00;7.00;1.00
68198;PMS7003;55021;51.554;17.044;2023-03-15T03:58:07;10.00;7.00;1.75
68198;PMS7003;55021;51.554;17.044;2023-03-15T04:13:10;7.25;7.25;1.00
68198;PMS7003;55021;51.554;17.044;2023-03-15T04:28:12;7.00;6.25;1.00
68198;PMS7003;55021;51.554;17.044;2023-03-15T04:43:14;7.00;6.00;1.00
68198;PMS7003;55021;51.554;17.044;2023-03-15T04:58:17;6.75;6.00;1.00
68198;PMS7003;55021;51.554;17.044;2023-03-15T05:13:20;7.50;7.50;1.00
68198;PMS7003;55021;51.554;17.044;2023-03-15T05:28:24;8.50;7.00;1.00
68198;PMS7003;55021;51.554;17.044;2023-03-15T05:43:27;9.25;7.00;1.00
68198;PMS7003;55021;51.554;17.044;2023-03-15T05:58:35;8.50;6.75;1.50
68198;PMS7003;55021;51.554;17.044;2023-03-15T06:13:40;11.00;8.75;2.75
68198;PMS7003;55021;51.554;17.044;2023-03-15T06:29:03;7.50;7.50;1.00
68198;PMS7003;55021;51.554;17.044;2023-03-15T06:44:06;7.50;6.50;1.00
68198;PMS7003;55021;51.554;17.044;2023-03-15T06:59:11;6.00;5.25;0.75
68198;PMS7003;55021;51.554;17.044;2023-03-15T07:14:15;7.00;7.00;1.00
68198;PMS7003;55021;51.554;17.044;2023-03-15T07:29:17;7.00;7.00;1.00
68198;PMS7003;55021;51.554;17.044;2023-03-15T07:44:20;8.00;6.00;1.00
68198;PMS7003;55021;51.554;17.044;2023-03-15T07:59:22;9.25;7.00;1.00
68198;PMS7003;55021;51.554;17.044;2023-03-15T08:14:25;10.00;7.00;1.00
68198;PMS7003;55021;51.554;17.044;2023-03-15T08:29:28;10.50;7.00;1.00
68198;PMS7003;55021;51.554;17.044;2023-03-15T08:44:31;8.00;7.00;1.00
68198;PMS7003;55021;51.554;17.044;2023-03-15T08:59:33;8.00;6.50;1.75
68198;PMS7003;55021;51.554;17.044;2023-03-15T09:14:36;6.25;6.25;0.75
68198;PMS7003;55021;51.554;17.044;2023-03-15T09:29:39;6.25;6.25;2.00
68198;PMS7003;55021;51.554;17.044;2023-03-15T09:44:44;9.00;8.25;2.00
68198;PMS7003;55021;51.554;17.044;2023-03-15T09:59:50;8.25;8.25;2.00
68198;PMS7003;55021;51.554;17.044;2023-03-15T10:14:58;7.00;7.00;1.50
68198;PMS7003;55021;51.554;17.044;2023-03-15T10:30:15;9.25;6.25;2.00
68198;PMS7003;55021;51.554;17.044;2023-03-15T10:45:21;6.75;6.75;2.00
68198;PMS7003;55021;51.554;17.044;2023-03-15T11:00:29;9.50;9.00;3.00
68198;PMS7003;55021;51.554;17.044;2023-03-15T11:15:33;8.75;8.00;2.00
68198;PMS7003;55021;51.554;17.044;2023-03-15T11:30:36;9.75;8.25;3.25
68198;PMS7003;55021;51.554;17.044;2023-03-15T11:45:43;14.00;11.75;5.00
68198;PMS7003;55021;51.554;17.044;2023-03-15T12:00:50;8.00;7.00;2.00
68198;PMS7003;55021;51.554;17.044;2023-03-15T12:15:57;9.00;9.00;3.00
68198;PMS7003;55021;51.554;17.044;2023-03-15T12:31:01;7.00;6.25;2.00
68198;PMS7003;55021;51.554;17.044;2023-03-15T12:46:07;9.00;9.00;2.75
68198;PMS7003;55021;51.554;17.044;2023-03-15T13:01:44;9.50;9.00;3.75
68198;PMS7003;55021;51.554;17.044;2023-03-15T13:16:47;9.50;9.00;2.50
68198;PMS7003;55021;51.554;17.044;2023-03-15T13:32:07;8.75;7.00;3.00
68198;PMS7003;55021;51.554;17.044;2023-03-15T13:47:19;9.25;9.00;2.50
68198;PMS7003;55021;51.554;17.044;2023-03-15T14:02:22;9.00;9.00;2.50
68198;PMS7003;55021;51.554;17.044;2023-03-15T14:17:38;11.50;11.00;5.00
68198;PMS7003;55021;51.554;17.044;2023-03-15T14:32:55;10.00;10.00;4.00
68198;PMS7003;55021;51.554;17.044;2023-03-15T14:47:59;12.50;12.50;7.00
68198;PMS7003;55021;51.554;17.044;2023-03-15T15:03:11;7.00;7.00;2.25
68198;PMS7003;55021;51.554;17.044;2023-03-15T15:18:18;12.75;9.50;4.00
68198;PMS7003;55021;51.554;17.044;2023-03-15T15:33:20;9.50;9.50;4.00
68198;PMS7003;55021;51.554;17.044;2023-03-15T15:48:23;9.50;9.00;4.00
68198;PMS7003;55021;51.554;17.044;2023-03-15T16:03:26;9.25;9.00;4.00
68198;PMS7003;55021;51.554;17.044;2023-03-15T16:18:32;8.75;8.75;2.00
68198;PMS7003;55021;51.554;17.044;2023-03-15T16:33:40;12.75;8.00;2.00
68198;PMS7003;55021;51.554;17.044;2023-03-15T16:48:48;12.00;11.25;4.00
68198;PMS7003;55021;51.554;17.044;2023-03-15T17:03:54;14.00;9.75;4.00
68198;PMS7003;55021;51.554;17.044;2023-03-15T17:18:56;11.00;10.00;4.00
68198;PMS7003;55021;51.554;17.044;2023-03-15T17:33:59;11.00;11.00;3.50
68198;PMS7003;55021;51.554;17.044;2023-03-15T18:04:03;29.75;27.00;14.50
68198;PMS7003;55021;51.554;17.044;2023-03-15T18:19:07;8.00;8.00;2.00
68198;PMS7003;55021;51.554;17.044;2023-03-15T19:05:09;24.50;18.00;9.00
68198;PMS7003;55021;51.554;17.044;2023-03-15T19:20:51;19.75;17.75;9.00
68198;PMS7003;55021;51.554;17.044;2023-03-15T21:25:24;37.50;31.75;17.25
68198;PMS7003;55021;51.554;17.044;2023-03-15T21:40:35;36.00;29.75;13.25
68198;PMS7003;55021;51.554;17.044;2023-03-15T21:55:41;26.00;20.75;12.25
68198;PMS7003;55021;51.554;17.044;2023-03-15T22:10:43;29.00;29.00;16.00
68198;PMS7003;55021;51.554;17.044;2023-03-15T22:25:46;31.25;26.75;15.50
68198;PMS7003;55021;51.554;17.044;2023-03-15T22:40:59;62.00;51.00;30.75
68198;PMS7003;55021;51.554;17.044;2023-03-15T22:56:02;86.00;61.25;37.25
68198;PMS7003;55021;51.554;17.044;2023-03-15T23:11:05;74.75;56.50;35.50
68198;PMS7003;55021;51.554;17.044;2023-03-15T23:26:11;35.50;27.75;14.00
68198;PMS7003;55021;51.554;17.044;2023-03-15T23:41:13;26.25;24.75;15.25
68198;PMS7003;55021;51.554;17.044;2023-03-15T23:56:15;37.00;28.00;15.50
